sensor_id;sensor_type;location;lat;lon;timestamp;P1;durP1;ratioP1;P2;durP2;ratioP2
22861;SDS011;11598;50.652;6.172;2023-03-24T00:04:53;5.63;;;2.00;;
22861;SDS011;11598;50.652;6.172;2023-03-24T00:14:57;7.38;;;2.28;;
22861;SDS011;11598;50.652;6.172;2023-03-24T00:25:01;6.25;;;3.33;;
22861;SDS011;11598;50.652;6.172;2023-03-24T00:35:04;7.65;;;3.38;;
22861;SDS011;11598;50.652;6.172;2023-03-24T00:45:06;5.47;;;2.88;;
22861;SDS011;11598;50.652;6.172;2023-03-24T00:55:08;4.30;;;2.55;;
22861;SDS011;11598;50.652;6.172;2023-03-24T01:05:13;6.85;;;3.47;;
22861;SDS011;11598;50.652;6.172;2023-03-24T01:15:17;6.47;;;3.05;;
22861;SDS011;11598;50.652;6.172;2023-03-24T01:25:21;4.83;;;2.80;;
22861;SDS011;11598;50.652;6.172;2023-03-24T01:35:23;6.93;;;3.55;;
22861;SDS011;11598;50.652;6.172;2023-03-24T01:55:37;6.38;;;3.47;;
22861;SDS011;11598;50.652;6.172;2023-03-24T02:05:38;5.88;;;2.90;;
22861;SDS011;11598;50.652;6.172;2023-03-24T02:16:02;5.47;;;2.65;;
22861;SDS011;11598;50.652;6.172;2023-03-24T02:47:15;5.28;;;2.97;;
22861;SDS011;11598;50.652;6.172;2023-03-24T02:57:29;6.77;;;3.30;;
22861;SDS011;11598;50.652;6.172;2023-03-24T03:07:35;5.70;;;2.60;;
22861;SDS011;11598;50.652;6.172;2023-03-24T03:17:40;5.13;;;2.90;;
22861;SDS011;11598;50.652;6.172;2023-03-24T03:27:47;5.30;;;2.60;;
22861;SDS011;11598;50.652;6.172;2023-03-24T03:38:00;5.40;;;2.47;;
22861;SDS011;11598;50.652;6.172;2023-03-24T03:48:05;5.70;;;2.42;;
22861;SDS011;11598;50.652;6.172;2023-03-24T03:58:06;4.15;;;2.00;;
22861;SDS011;11598;50.652;6.172;2023-03-24T04:39:18;9.30;;;2.20;;
22861;SDS011;11598;50.652;6.172;2023-03-24T04:49:24;6.85;;;1.80;;
22861;SDS011;11598;50.652;6.172;2023-03-24T04:59:26;10.82;;;1.85;;
22861;SDS011;11598;50.652;6.172;2023-03-24T05:09:27;5.25;;;1.50;;
22861;SDS011;11598;50.652;6.172;2023-03-24T05:19:30;8.00;;;1.60;;
22861;SDS011;11598;50.652;6.172;2023-03-24T05:29:32;5.00;;;1.08;;
22861;SDS011;11598;50.652;6.172;2023-03-24T05:39:32;5.55;;;1.00;;
22861;SDS011;11598;50.652;6.172;2023-03-24T05:49:32;10.50;;;1.50;;
22861;SDS011;11598;50.652;6.172;2023-03-24T05:59:33;11.30;;;1.98;;
22861;SDS011;11598;50.652;6.172;2023-03-24T06:09:34;10.30;;;1.70;;
22861;SDS011;11598;50.652;6.172;2023-03-24T06:19:35;6.82;;;1.60;;
22861;SDS011;11598;50.652;6.172;2023-03-24T06:29:37;8.98;;;2.13;;
22861;SDS011;11598;50.652;6.172;2023-03-24T06:39:41;11.90;;;2.10;;
22861;SDS011;11598;50.652;6.172;2023-03-24T06:49:41;13.02;;;2.40;;
22861;SDS011;11598;50.652;6.172;2023-03-24T06:59:42;10.30;;;2.25;;
22861;SDS011;11598;50.652;6.172;2023-03-24T07:09:42;10.98;;;2.63;;
22861;SDS011;11598;50.652;6.172;2023-03-24T07:19:43;11.20;;;2.88;;
22861;SDS011;11598;50.652;6.172;2023-03-24T07:29:44;13.88;;;2.63;;
22861;SDS011;11598;50.652;6.172;2023-03-24T07:39:45;12.88;;;3.50;;
22861;SDS011;11598;50.652;6.172;2023-03-24T07:49:45;13.88;;;3.70;;
22861;SDS011;11598;50.652;6.172;2023-03-24T07:59:45;15.35;;;3.05;;
22861;SDS011;11598;50.652;6.172;2023-03-24T08:09:46;8.43;;;1.80;;
22861;SDS011;11598;50.652;6.172;2023-03-24T08:19:46;10.80;;;1.80;;
22861;SDS011;11598;50.652;6.172;2023-03-24T08:29:47;17.55;;;1.83;;
22861;SDS011;11598;50.652;6.172;2023-03-24T08:39:47;9.55;;;1.63;;
22861;SDS011;11598;50.652;6.172;2023-03-24T08:49:48;11.88;;;1.80;;
22861;SDS011;11598;50.652;6.172;2023-03-24T08:59:48;9.25;;;1.40;;
22861;SDS011;11598;50.652;6.172;2023-03-24T09:09:48;17.00;;;2.28;;
22861;SDS011;11598;50.652;6.172;2023-03-24T09:19:49;14.45;;;2.13;;
22861;SDS011;11598;50.652;6.172;2023-03-24T09:29:49;12.95;;;1.83;;
22861;SDS011;11598;50.652;6.172;2023-03-24T09:39:50;9.55;;;1.35;;
22861;SDS011;11598;50.652;6.172;2023-03-24T09:49:50;11.52;;;1.73;;
22861;SDS011;11598;50.652;6.172;2023-03-24T09:59:52;14.95;;;2.22;;
22861;SDS011;11598;50.652;6.172;2023-03-24T10:09:56;8.48;;;1.63;;
22861;SDS011;11598;50.652;6.172;2023-03-24T10:20:00;8.38;;;1.13;;
22861;SDS011;11598;50.652;6.172;2023-03-24T10:40:27;12.65;;;2.05;;
22861;SDS011;11598;50.652;6.172;2023-03-24T10:50:31;7.55;;;1.35;;
22861;SDS011;11598;50.652;6.172;2023-03-24T11:00:35;7.10;;;1.38;;
22861;SDS011;11598;50.652;6.172;2023-03-24T11:10:37;8.13;;;1.30;;
22861;SDS011;11598;50.652;6.172;2023-03-24T11:20:38;11.15;;;1.48;;
22861;SDS011;11598;50.652;6.172;2023-03-24T11:30:50;10.85;;;2.30;;
22861;SDS011;11598;50.652;6.172;2023-03-24T11:40:53;8.95;;;1.83;;
22861;SDS011;11598;50.652;6.172;2023-03-24T11:50:58;6.28;;;1.40;;
22861;SDS011;11598;50.652;6.172;2023-03-24T12:32:16;6.97;;;1.30;;
22861;SDS011;11598;50.652;6.172;2023-03-24T12:42:23;6.57;;;1.37;;
22861;SDS011;11598;50.652;6.172;2023-03-24T13:02:42;5.28;;;0.82;;
22861;SDS011;11598;50.652;6.172;2023-03-24T13:23:12;7.85;;;1.08;;
22861;SDS011;11598;50.652;6.172;2023-03-24T13:33:15;5.60;;;1.35;;
22861;SDS011;11598;50.652;6.172;2023-03-24T13:43:20;7.50;;;1.30;;
22861;SDS011;11598;50.652;6.172;2023-03-24T13:53:40;9.40;;;1.80;;
22861;SDS011;11598;50.652;6.172;2023-03-24T14:03:45;6.80;;;1.00;;
22861;SDS011;11598;50.652;6.172;2023-03-24T14:24:15;7.85;;;1.42;;
22861;SDS011;11598;50.652;6.172;2023-03-24T14:34:21;9.57;;;1.42;;
22861;SDS011;11598;50.652;6.172;2023-03-24T14:55:08;9.02;;;1.45;;
22861;SDS011;11598;50.652;6.172;2023-03-24T15:26:13;9.10;;;1.10;;
22861;SDS011;11598;50.652;6.172;2023-03-24T15:36:15;6.70;;;1.13;;
22861;SDS011;11598;50.652;6.172;2023-03-24T15:56:27;11.98;;;1.70;;
22861;SDS011;11598;50.652;6.172;2023-03-24T16:06:33;11.07;;;1.88;;
22861;SDS011;11598;50.652;6.172;2023-03-24T16:16:35;6.80;;;1.00;;
22861;SDS011;11598;50.652;6.172;2023-03-24T16:26:37;6.20;;;0.90;;
22861;SDS011;11598;50.652;6.172;2023-03-24T16:36:37;5.57;;;0.63;;
22861;SDS011;11598;50.652;6.172;2023-03-24T16:46:38;6.60;;;0.70;;
22861;SDS011;11598;50.652;6.172;2023-03-24T16:56:40;3.35;;;0.47;;
22861;SDS011;11598;50.652;6.172;2023-03-24T17:06:42;9.07;;;0.88;;
22861;SDS011;11598;50.652;6.172;2023-03-24T17:16:44;7.00;;;0.90;;
22861;SDS011;11598;50.652;6.172;2023-03-24T17:26:45;7.82;;;0.95;;
22861;SDS011;11598;50.652;6.172;2023-03-24T17:36:46;9.93;;;1.27;;
22861;SDS011;11598;50.652;6.172;2023-03-24T17:46:49;7.97;;;1.20;;
22861;SDS011;11598;50.652;6.172;2023-03-24T17:56:49;5.30;;;0.75;;
22861;SDS011;11598;50.652;6.172;2023-03-24T18:06:50;7.53;;;1.02;;
22861;SDS011;11598;50.652;6.172;2023-03-24T18:16:50;4.65;;;1.08;;
22861;SDS011;11598;50.652;6.172;2023-03-24T18:26:51;4.53;;;0.63;;
22861;SDS011;11598;50.652;6.172;2023-03-24T18:36:51;9.25;;;1.08;;
22861;SDS011;11598;50.652;6.172;2023-03-24T18:46:51;5.00;;;0.60;;
22861;SDS011;11598;50.652;6.172;2023-03-24T18:56:53;5.30;;;0.77;;
22861;SDS011;11598;50.652;6.172;2023-03-24T19:06:53;2.05;;;0.52;;
22861;SDS011;11598;50.652;6.172;2023-03-24T19:16:53;3.95;;;0.65;;
22861;SDS011;11598;50.652;6.172;2023-03-24T19:26:56;3.55;;;0.40;;
22861;SDS011;11598;50.652;6.172;2023-03-24T19:36:56;1.73;;;0.50;;
22861;SDS011;11598;50.652;6.172;2023-03-24T19:46:57;2.53;;;0.40;;
22861;SDS011;11598;50.652;6.172;2023-03-24T19:56:58;1.85;;;0.40;;
22861;SDS011;11598;50.652;6.172;2023-03-24T20:07:00;2.07;;;0.47;;
22861;SDS011;11598;50.652;6.172;2023-03-24T20:17:02;3.65;;;0.40;;
22861;SDS011;11598;50.652;6.172;2023-03-24T20:27:02;3.40;;;0.40;;
22861;SDS011;11598;50.652;6.172;2023-03-24T20:37:04;1.23;;;0.43;;
22861;SDS011;11598;50.652;6.172;2023-03-24T20:47:06;1.93;;;0.33;;
22861;SDS011;11598;50.652;6.172;2023-03-24T20:57:06;2.85;;;0.32;;
22861;SDS011;11598;50.652;6.172;2023-03-24T21:07:10;1.40;;;0.40;;
22861;SDS011;11598;50.652;6.172;2023-03-24T21:17:11;5.03;;;0.60;;
22861;SDS011;11598;50.652;6.172;2023-03-24T21:27:12;1.73;;;0.60;;
22861;SDS011;11598;50.652;6.172;2023-03-24T21:37:12;3.33;;;1.05;;
22861;SDS011;11598;50.652;6.172;2023-03-24T21:47:16;3.47;;;0.60;;
22861;SDS011;11598;50.652;6.172;2023-03-24T21:57:17;2.63;;;0.55;;
22861;SDS011;11598;50.652;6.172;2023-03-24T22:07:18;3.50;;;0.50;;
22861;SDS011;11598;50.652;6.172;2023-03-24T22:17:21;3.13;;;0.53;;
22861;SDS011;11598;50.652;6.172;2023-03-24T22:27:22;8.80;;;1.02;;
22861;SDS011;11598;50.652;6.172;2023-03-24T22:37:22;4.13;;;0.60;;
22861;SDS011;11598;50.652;6.172;2023-03-24T22:47:23;3.25;;;0.68;;
22861;SDS011;11598;50.652;6.172;2023-03-24T22:57:23;3.70;;;0.75;;
22861;SDS011;11598;50.652;6.172;2023-03-24T23:07:24;2.90;;;0.80;;
22861;SDS011;11598;50.652;6.172;2023-03-24T23:17:27;5.57;;;0.80;;
22861;SDS011;11598;50.652;6.172;2023-03-24T23:27:27;5.45;;;0.80;;
22861;SDS011;11598;50.652;6.172;2023-03-24T23:37:28;5.07;;;0.80;;
22861;SDS011;11598;50.652;6.172;2023-03-24T23:47:31;7.72;;;1.10;;
22861;SDS011;11598;50.652;6.172;2023-03-24T23:57:32;5.22;;;0.63;;
